sensor_id;sensor_type;location;lat;lon;timestamp;pressure;altitude;pressure_sealevel;temperature;humidity
22389;BME280;11362;48.102;11.620;2023-04-07T00:00:29;95188.59;;;23.39;27.71
22389;BME280;11362;48.102;11.620;2023-04-07T00:02:54;95187.03;;;23.38;27.56
22389;BME280;11362;48.102;11.620;2023-04-07T00:05:20;95187.44;;;23.37;27.60
22389;BME280;11362;48.102;11.620;2023-04-07T00:07:45;95193.78;;;23.38;27.88
22389;BME280;11362;48.102;11.620;2023-04-07T00:10:10;95190.59;;;23.39;27.42
22389;BME280;11362;48.102;11.620;2023-04-07T00:12:36;95192.56;;;23.38;27.75
22389;BME280;11362;48.102;11.620;2023-04-07T00:15:01;95182.69;;;23.38;27.57
22389;BME280;11362;48.102;11.620;2023-04-07T00:17:26;95189.78;;;23.38;27.67
22389;BME280;11362;48.102;11.620;2023-04-07T00:19:52;95189.78;;;23.38;27.76
22389;BME280;11362;48.102;11.620;2023-04-07T00:22:17;95180.72;;;23.38;27.67
22389;BME280;11362;48.102;11.620;2023-04-07T00:24:42;95182.69;;;23.38;27.74
22389;BME280;11362;48.102;11.620;2023-04-07T00:27:08;95181.88;;;23.37;27.73
22389;BME280;11362;48.102;11.620;2023-04-07T00:29:33;95186.25;;;23.38;27.72
22389;BME280;11362;48.102;11.620;2023-04-07T00:31:58;95178.34;;;23.37;27.65
22389;BME280;11362;48.102;11.620;2023-04-07T00:34:24;95174.78;;;23.36;28.10
22389;BME280;11362;48.102;11.620;2023-04-07T00:36:49;95179.56;;;23.36;27.81
22389;BME280;11362;48.102;11.620;2023-04-07T00:39:14;95188.22;;;23.38;27.85
22389;BME280;11362;48.102;11.620;2023-04-07T00:41:39;95177.13;;;23.38;27.69
22389;BME280;11362;48.102;11.620;2023-04-07T00:44:05;95178.34;;;23.37;27.75
22389;BME280;11362;48.102;11.620;2023-04-07T00:46:30;95174.78;;;23.36;27.79
22389;BME280;11362;48.102;11.620;2023-04-07T00:48:55;95164.47;;;23.37;27.73
22389;BME280;11362;48.102;11.620;2023-04-07T00:51:21;95169.22;;;23.36;27.89
22389;BME280;11362;48.102;11.620;2023-04-07T00:53:47;95158.59;;;23.35;27.66
22389;BME280;11362;48.102;11.620;2023-04-07T00:56:13;95153.03;;;23.35;27.83
22389;BME280;11362;48.102;11.620;2023-04-07T00:58:38;95148.66;;;23.33;27.67
22389;BME280;11362;48.102;11.620;2023-04-07T01:01:07;95143.13;;;23.33;27.72
22389;BME280;11362;48.102;11.620;2023-04-07T01:03:38;95150.28;;;23.35;27.79
22389;BME280;11362;48.102;11.620;2023-04-07T01:06:06;95145.13;;;23.33;27.90
22389;BME280;11362;48.102;11.620;2023-04-07T01:08:37;95140.81;;;23.32;27.65
22389;BME280;11362;48.102;11.620;2023-04-07T01:13:50;95134.88;;;23.30;27.58
22389;BME280;11362;48.102;11.620;2023-04-07T01:16:47;95138.03;;;23.32;27.60
22389;BME280;11362;48.102;11.620;2023-04-07T01:21:57;95145.53;;;23.32;27.76
22389;BME280;11362;48.102;11.620;2023-04-07T01:24:41;95135.25;;;23.32;27.55
22389;BME280;11362;48.102;11.620;2023-04-07T01:27:20;95126.56;;;23.30;27.61
22389;BME280;11362;48.102;11.620;2023-04-07T01:29:46;95127.34;;;23.31;27.50
22389;BME280;11362;48.102;11.620;2023-04-07T01:32:13;95124.59;;;23.31;27.41
22389;BME280;11362;48.102;11.620;2023-04-07T01:34:39;95134.09;;;23.30;27.52
22389;BME280;11362;48.102;11.620;2023-04-07T01:37:06;95123.00;;;23.30;27.28
22389;BME280;11362;48.102;11.620;2023-04-07T01:39:32;95134.09;;;23.30;27.54
22389;BME280;11362;48.102;11.620;2023-04-07T01:41:59;95121.44;;;23.29;27.34
22389;BME280;11362;48.102;11.620;2023-04-07T01:44:26;95128.19;;;23.28;27.38
22389;BME280;11362;48.102;11.620;2023-04-07T01:46:53;95125.00;;;23.29;27.55
22389;BME280;11362;48.102;11.620;2023-04-07T01:49:19;95125.00;;;23.29;27.49
22389;BME280;11362;48.102;11.620;2023-04-07T01:51:45;95140.06;;;23.28;27.45
22389;BME280;11362;48.102;11.620;2023-04-07T01:54:11;95133.75;;;23.28;27.23
22389;BME280;11362;48.102;11.620;2023-04-07T01:56:36;95140.06;;;23.28;27.40
22389;BME280;11362;48.102;11.620;2023-04-07T01:59:02;95133.75;;;23.28;27.53
22389;BME280;11362;48.102;11.620;2023-04-07T02:01:27;95130.97;;;23.28;27.41
22389;BME280;11362;48.102;11.620;2023-04-07T02:03:55;95130.97;;;23.28;27.38
22389;BME280;11362;48.102;11.620;2023-04-07T02:06:40;95129.38;;;23.27;27.41
22389;BME280;11362;48.102;11.620;2023-04-07T02:09:10;95127.41;;;23.27;27.57
22389;BME280;11362;48.102;11.620;2023-04-07T02:11:36;95134.91;;;23.27;27.45
22389;BME280;11362;48.102;11.620;2023-04-07T02:14:03;95121.88;;;23.27;27.29
22389;BME280;11362;48.102;11.620;2023-04-07T02:16:30;95126.59;;;23.27;27.22
22389;BME280;11362;48.102;11.620;2023-04-07T02:18:57;95118.28;;;23.27;27.42
22389;BME280;11362;48.102;11.620;2023-04-07T02:21:23;95117.88;;;23.28;27.35
22389;BME280;11362;48.102;11.620;2023-04-07T02:23:50;95116.72;;;23.26;27.67
22389;BME280;11362;48.102;11.620;2023-04-07T02:26:15;95120.28;;;23.26;27.35
22389;BME280;11362;48.102;11.620;2023-04-07T02:28:41;95120.28;;;23.26;27.37
22389;BME280;11362;48.102;11.620;2023-04-07T02:31:06;95115.53;;;23.27;27.48
22389;BME280;11362;48.102;11.620;2023-04-07T02:33:31;95109.22;;;23.26;27.28
22389;BME280;11362;48.102;11.620;2023-04-07T02:35:56;95116.72;;;23.26;27.44
22389;BME280;11362;48.102;11.620;2023-04-07T02:38:22;95116.72;;;23.26;27.30
22389;BME280;11362;48.102;11.620;2023-04-07T02:40:47;95112.75;;;23.27;27.45
22389;BME280;11362;48.102;11.620;2023-04-07T02:43:13;95109.63;;;23.25;27.39
22389;BME280;11362;48.102;11.620;2023-04-07T02:45:38;95108.41;;;23.26;27.46
22389;BME280;11362;48.102;11.620;2023-04-07T02:48:04;95115.16;;;23.25;27.51
22389;BME280;11362;48.102;11.620;2023-04-07T02:50:29;95112.38;;;23.25;27.38
22389;BME280;11362;48.102;11.620;2023-04-07T02:52:54;95120.28;;;23.26;27.38
22389;BME280;11362;48.102;11.620;2023-04-07T02:55:19;95130.59;;;23.26;27.44
22389;BME280;11362;48.102;11.620;2023-04-07T02:57:45;95129.44;;;23.23;27.31
22389;BME280;11362;48.102;11.620;2023-04-07T03:00:10;95127.81;;;23.26;27.45
22389;BME280;11362;48.102;11.620;2023-04-07T03:02:36;95131.78;;;23.25;27.41
22389;BME280;11362;48.102;11.620;2023-04-07T03:05:01;95133.78;;;23.24;27.23
22389;BME280;11362;48.102;11.620;2023-04-07T03:07:26;95139.34;;;23.24;27.47
22389;BME280;11362;48.102;11.620;2023-04-07T03:09:52;95141.66;;;23.26;27.54
22389;BME280;11362;48.102;11.620;2023-04-07T03:12:17;95145.66;;;23.25;27.37
22389;BME280;11362;48.102;11.620;2023-04-07T03:14:42;95140.09;;;23.25;27.60
22389;BME280;11362;48.102;11.620;2023-04-07T03:17:08;95136.97;;;23.23;27.55
22389;BME280;11362;48.102;11.620;2023-04-07T03:19:33;95133.78;;;23.24;27.24
22389;BME280;11362;48.102;11.620;2023-04-07T03:21:58;95126.25;;;23.25;27.56
22389;BME280;11362;48.102;11.620;2023-04-07T03:24:23;95115.56;;;23.23;27.59
22389;BME280;11362;48.102;11.620;2023-04-07T03:26:49;95125.47;;;23.24;27.49
22389;BME280;11362;48.102;11.620;2023-04-07T03:29:14;95116.72;;;23.26;27.41
22389;BME280;11362;48.102;11.620;2023-04-07T03:31:39;95112.03;;;23.23;27.61
22389;BME280;11362;48.102;11.620;2023-04-07T03:34:05;95116.38;;;23.24;27.44
22389;BME280;11362;48.102;11.620;2023-04-07T03:36:30;95113.59;;;23.24;27.51
22389;BME280;11362;48.102;11.620;2023-04-07T03:38:55;95116.38;;;23.24;27.58
22389;BME280;11362;48.102;11.620;2023-04-07T03:41:21;95114.81;;;23.23;27.50
22389;BME280;11362;48.102;11.620;2023-04-07T03:43:46;95107.69;;;23.22;27.48
22389;BME280;11362;48.102;11.620;2023-04-07T03:46:11;95113.25;;;23.22;27.46
22389;BME280;11362;48.102;11.620;2023-04-07T03:48:37;95110.81;;;23.24;27.58
22389;BME280;11362;48.102;11.620;2023-04-07T03:51:02;95111.25;;;23.22;27.58
22389;BME280;11362;48.102;11.620;2023-04-07T03:53:27;95112.03;;;23.23;27.51
22389;BME280;11362;48.102;11.620;2023-04-07T03:55:53;95109.25;;;23.23;27.57
22389;BME280;11362;48.102;11.620;2023-04-07T03:58:18;95103.72;;;23.23;27.59
22389;BME280;11362;48.102;11.620;2023-04-07T04:00:43;95103.72;;;23.23;27.60
22389;BME280;11362;48.102;11.620;2023-04-07T04:03:09;95103.72;;;23.23;27.48
22389;BME280;11362;48.102;11.620;2023-04-07T04:05:34;95106.50;;;23.23;27.68
22389;BME280;11362;48.102;11.620;2023-04-07T04:07:59;95102.16;;;23.22;27.60
22389;BME280;11362;48.102;11.620;2023-04-07T04:10:25;95104.94;;;23.22;27.63
22389;BME280;11362;48.102;11.620;2023-04-07T04:12:50;95103.72;;;23.23;27.51
22389;BME280;11362;48.102;11.620;2023-04-07T04:15:15;95098.19;;;23.23;27.67
22389;BME280;11362;48.102;11.620;2023-04-07T04:17:41;95094.63;;;23.22;27.62
22389;BME280;11362;48.102;11.620;2023-04-07T04:20:06;95093.84;;;23.22;27.77
22389;BME280;11362;48.102;11.620;2023-04-07T04:22:32;95092.63;;;23.23;27.61
22389;BME280;11362;48.102;11.620;2023-04-07T04:24:58;95092.63;;;23.23;27.78
22389;BME280;11362;48.102;11.620;2023-04-07T04:27:24;95093.84;;;23.22;27.63
22389;BME280;11362;48.102;11.620;2023-04-07T04:29:49;95097.03;;;23.20;27.75
22389;BME280;11362;48.102;11.620;2023-04-07T04:32:14;95086.75;;;23.21;27.73
22389;BME280;11362;48.102;11.620;2023-04-07T04:34:39;95095.06;;;23.21;27.66
22389;BME280;11362;48.102;11.620;2023-04-07T04:37:05;95091.47;;;23.20;27.47
22389;BME280;11362;48.102;11.620;2023-04-07T04:39:30;95095.06;;;23.21;27.67
22389;BME280;11362;48.102;11.620;2023-04-07T04:41:55;95095.81;;;23.21;27.49
22389;BME280;11362;48.102;11.620;2023-04-07T04:44:21;95103.38;;;23.21;27.72
22389;BME280;11362;48.102;11.620;2023-04-07T04:46:46;95087.50;;;23.21;27.67
22389;BME280;11362;48.102;11.620;2023-04-07T04:49:11;95090.69;;;23.20;27.70
22389;BME280;11362;48.102;11.620;2023-04-07T04:51:36;95087.91;;;23.20;27.53
22389;BME280;11362;48.102;11.620;2023-04-07T04:54:02;95089.50;;;23.21;27.65
22389;BME280;11362;48.102;11.620;2023-04-07T04:56:27;95086.34;;;23.19;27.62
22389;BME280;11362;48.102;11.620;2023-04-07T04:58:52;95085.94;;;23.20;27.74
22389;BME280;11362;48.102;11.620;2023-04-07T05:01:18;95084.78;;;23.18;27.60
22389;BME280;11362;48.102;11.620;2023-04-07T05:03:43;95082.38;;;23.20;27.86
22389;BME280;11362;48.102;11.620;2023-04-07T05:06:08;95089.50;;;23.21;27.63
22389;BME280;11362;48.102;11.620;2023-04-07T05:08:34;95084.38;;;23.19;27.71
22389;BME280;11362;48.102;11.620;2023-04-07T05:10:59;95087.91;;;23.20;27.80
22389;BME280;11362;48.102;11.620;2023-04-07T05:13:24;95075.28;;;23.19;27.67
22389;BME280;11362;48.102;11.620;2023-04-07T05:15:49;95078.03;;;23.19;27.60
22389;BME280;11362;48.102;11.620;2023-04-07T05:18:15;95060.22;;;23.20;27.88
22389;BME280;11362;48.102;11.620;2023-04-07T05:20:40;95071.28;;;23.20;27.80
22389;BME280;11362;48.102;11.620;2023-04-07T05:23:05;95071.28;;;23.20;27.70
22389;BME280;11362;48.102;11.620;2023-04-07T05:25:31;95067.75;;;23.19;27.77
22389;BME280;11362;48.102;11.620;2023-04-07T05:27:57;95090.69;;;23.20;27.77
22389;BME280;11362;48.102;11.620;2023-04-07T05:30:23;95084.38;;;23.19;27.71
22389;BME280;11362;48.102;11.620;2023-04-07T05:32:48;95086.34;;;23.19;27.80
22389;BME280;11362;48.102;11.620;2023-04-07T05:35:13;95089.91;;;23.19;27.84
22389;BME280;11362;48.102;11.620;2023-04-07T05:37:39;95093.47;;;23.20;27.83
22389;BME280;11362;48.102;11.620;2023-04-07T05:40:04;95088.34;;;23.18;27.72
22389;BME280;11362;48.102;11.620;2023-04-07T05:42:30;95086.34;;;23.19;27.80
22389;BME280;11362;48.102;11.620;2023-04-07T05:44:55;95078.84;;;23.19;27.68
22389;BME280;11362;48.102;11.620;2023-04-07T05:47:20;95085.16;;;23.20;27.86
22389;BME280;11362;48.102;11.620;2023-04-07T05:49:46;95090.69;;;23.20;27.79
22389;BME280;11362;48.102;11.620;2023-04-07T05:52:14;95083.59;;;23.19;27.68
22389;BME280;11362;48.102;11.620;2023-04-07T05:54:39;95083.16;;;23.20;27.79
22389;BME280;11362;48.102;11.620;2023-04-07T05:57:05;95076.06;;;23.19;27.77
22389;BME280;11362;48.102;11.620;2023-04-07T05:59:30;95071.28;;;23.20;27.90
22389;BME280;11362;48.102;11.620;2023-04-07T06:01:56;95068.97;;;23.18;27.92
22389;BME280;11362;48.102;11.620;2023-04-07T06:04:21;95066.97;;;23.19;27.76
22389;BME280;11362;48.102;11.620;2023-04-07T06:06:46;95070.53;;;23.19;27.91
22389;BME280;11362;48.102;11.620;2023-04-07T06:09:12;95069.72;;;23.19;27.88
22389;BME280;11362;48.102;11.620;2023-04-07T06:11:37;95069.72;;;23.19;27.84
22389;BME280;11362;48.102;11.620;2023-04-07T06:14:02;95062.63;;;23.18;27.87
22389;BME280;11362;48.102;11.620;2023-04-07T06:16:28;95064.19;;;23.19;27.81
22389;BME280;11362;48.102;11.620;2023-04-07T06:18:53;95062.22;;;23.19;27.86
22389;BME280;11362;48.102;11.620;2023-04-07T06:21:18;95061.41;;;23.19;27.87
22389;BME280;11362;48.102;11.620;2023-04-07T06:23:43;95057.06;;;23.18;27.86
22389;BME280;11362;48.102;11.620;2023-04-07T06:26:09;95059.44;;;23.19;27.86
22389;BME280;11362;48.102;11.620;2023-04-07T06:28:35;95062.22;;;23.19;27.92
22389;BME280;11362;48.102;11.620;2023-04-07T06:31:00;95055.09;;;23.18;27.98
22389;BME280;11362;48.102;11.620;2023-04-07T06:33:25;95055.88;;;23.19;27.95
22389;BME280;11362;48.102;11.620;2023-04-07T06:35:51;95034.91;;;23.18;27.92
22389;BME280;11362;48.102;11.620;2023-04-07T06:38:16;95049.13;;;23.20;28.09
22389;BME280;11362;48.102;11.620;2023-04-07T06:40:41;95047.56;;;23.19;28.02
22389;BME280;11362;48.102;11.620;2023-04-07T06:43:07;95048.75;;;23.18;27.92
22389;BME280;11362;48.102;11.620;2023-04-07T06:45:32;95050.31;;;23.19;27.82
22389;BME280;11362;48.102;11.620;2023-04-07T06:47:57;95047.56;;;23.19;27.86
22389;BME280;11362;48.102;11.620;2023-04-07T06:50:22;95047.56;;;23.19;28.03
22389;BME280;11362;48.102;11.620;2023-04-07T06:52:48;95050.31;;;23.19;27.98
22389;BME280;11362;48.102;11.620;2023-04-07T06:55:13;95043.22;;;23.18;28.23
22389;BME280;11362;48.102;11.620;2023-04-07T06:57:38;95044.03;;;23.18;27.92
22389;BME280;11362;48.102;11.620;2023-04-07T07:00:04;95044.03;;;23.18;27.89
22389;BME280;11362;48.102;11.620;2023-04-07T07:02:30;95047.56;;;23.19;27.91
22389;BME280;11362;48.102;11.620;2023-04-07T07:04:55;95045.59;;;23.19;27.87
22389;BME280;11362;48.102;11.620;2023-04-07T07:07:20;95051.13;;;23.19;27.90
22389;BME280;11362;48.102;11.620;2023-04-07T07:09:46;95035.25;;;23.20;27.89
22389;BME280;11362;48.102;11.620;2023-04-07T07:12:11;95027.41;;;23.18;28.00
22389;BME280;11362;48.102;11.620;2023-04-07T07:14:36;95029.38;;;23.18;27.96
22389;BME280;11362;48.102;11.620;2023-04-07T07:17:01;95034.50;;;23.19;28.05
22389;BME280;11362;48.102;11.620;2023-04-07T07:19:27;95042.81;;;23.19;28.27
22389;BME280;11362;48.102;11.620;2023-04-07T07:21:52;95051.53;;;23.18;27.92
22389;BME280;11362;48.102;11.620;2023-04-07T07:24:17;95052.75;;;23.17;27.68
22389;BME280;11362;48.102;11.620;2023-04-07T07:26:43;95053.91;;;23.19;28.05
22389;BME280;11362;48.102;11.620;2023-04-07T07:29:08;95053.91;;;23.19;27.97
22389;BME280;11362;48.102;11.620;2023-04-07T07:31:33;95058.66;;;23.19;27.80
22389;BME280;11362;48.102;11.620;2023-04-07T07:33:58;95056.66;;;23.19;28.04
22389;BME280;11362;48.102;11.620;2023-04-07T07:36:24;95058.66;;;23.19;28.23
22389;BME280;11362;48.102;11.620;2023-04-07T07:38:49;95050.31;;;23.19;28.24
22389;BME280;11362;48.102;11.620;2023-04-07T07:41:15;95047.56;;;23.19;27.80
22389;BME280;11362;48.102;11.620;2023-04-07T07:43:40;95049.13;;;23.20;28.07
22389;BME280;11362;48.102;11.620;2023-04-07T07:46:05;95042.00;;;23.19;28.08
22389;BME280;11362;48.102;11.620;2023-04-07T07:48:31;95049.91;;;23.20;27.92
22389;BME280;11362;48.102;11.620;2023-04-07T07:50:56;95055.47;;;23.20;28.06
22389;BME280;11362;48.102;11.620;2023-04-07T07:53:22;95053.91;;;23.19;28.34
22389;BME280;11362;48.102;11.620;2023-04-07T07:55:47;95050.72;;;23.21;28.10
22389;BME280;11362;48.102;11.620;2023-04-07T07:58:12;95050.72;;;23.21;28.07
22389;BME280;11362;48.102;11.620;2023-04-07T08:00:37;95055.47;;;23.20;27.90
22389;BME280;11362;48.102;11.620;2023-04-07T08:03:03;95049.91;;;23.20;28.02
22389;BME280;11362;48.102;11.620;2023-04-07T08:05:28;95050.72;;;23.21;27.74
22389;BME280;11362;48.102;11.620;2023-04-07T08:07:53;95043.59;;;23.20;28.17
22389;BME280;11362;48.102;11.620;2023-04-07T08:10:19;95038.03;;;23.20;28.02
22389;BME280;11362;48.102;11.620;2023-04-07T08:12:44;95042.81;;;23.19;27.96
22389;BME280;11362;48.102;11.620;2023-04-07T08:15:10;95051.91;;;23.20;28.08
22389;BME280;11362;48.102;11.620;2023-04-07T08:17:35;95041.25;;;23.18;28.09
22389;BME280;11362;48.102;11.620;2023-04-07T08:20:01;95041.25;;;23.18;27.97
22389;BME280;11362;48.102;11.620;2023-04-07T08:22:26;95040.81;;;23.20;28.10
22389;BME280;11362;48.102;11.620;2023-04-07T08:24:51;95046.34;;;23.20;28.04
22389;BME280;11362;48.102;11.620;2023-04-07T08:27:17;95047.56;;;23.19;28.06
22389;BME280;11362;48.102;11.620;2023-04-07T08:29:42;95044.38;;;23.20;27.97
22389;BME280;11362;48.102;11.620;2023-04-07T08:32:07;95034.50;;;23.19;28.04
22389;BME280;11362;48.102;11.620;2023-04-07T08:34:32;95028.56;;;23.21;28.09
22389;BME280;11362;48.102;11.620;2023-04-07T08:36:58;95028.56;;;23.21;27.94
22389;BME280;11362;48.102;11.620;2023-04-07T08:39:23;95022.22;;;23.20;27.86
22389;BME280;11362;48.102;11.620;2023-04-07T08:41:49;95025.78;;;23.21;28.13
22389;BME280;11362;48.102;11.620;2023-04-07T08:44:15;95030.53;;;23.20;28.09
22389;BME280;11362;48.102;11.620;2023-04-07T08:46:40;95026.94;;;23.20;27.78
22389;BME280;11362;48.102;11.620;2023-04-07T08:49:09;95024.19;;;23.20;28.12
22389;BME280;11362;48.102;11.620;2023-04-07T08:51:36;95026.19;;;23.19;28.09
22389;BME280;11362;48.102;11.620;2023-04-07T08:54:09;95028.16;;;23.19;27.96
22389;BME280;11362;48.102;11.620;2023-04-07T08:56:39;95031.31;;;23.21;28.22
22389;BME280;11362;48.102;11.620;2023-04-07T08:59:07;95026.94;;;23.20;28.19
22389;BME280;11362;48.102;11.620;2023-04-07T09:01:34;95032.50;;;23.20;28.09
22389;BME280;11362;48.102;11.620;2023-04-07T09:04:02;95028.97;;;23.19;27.97
22389;BME280;11362;48.102;11.620;2023-04-07T09:06:29;95032.09;;;23.21;28.04
22389;BME280;11362;48.102;11.620;2023-04-07T09:08:54;95028.56;;;23.21;28.16
22389;BME280;11362;48.102;11.620;2023-04-07T09:11:20;95028.56;;;23.21;28.13
22389;BME280;11362;48.102;11.620;2023-04-07T09:13:45;95028.56;;;23.21;28.12
22389;BME280;11362;48.102;11.620;2023-04-07T09:16:11;95034.84;;;23.21;27.96
22389;BME280;11362;48.102;11.620;2023-04-07T09:18:37;95028.56;;;23.21;27.82
22389;BME280;11362;48.102;11.620;2023-04-07T09:21:03;95031.31;;;23.21;28.22
22389;BME280;11362;48.102;11.620;2023-04-07T09:23:40;95034.09;;;23.21;28.13
22389;BME280;11362;48.102;11.620;2023-04-07T09:28:54;95021.41;;;23.20;28.12
22389;BME280;11362;48.102;11.620;2023-04-07T09:31:21;95021.41;;;23.20;28.10
22389;BME280;11362;48.102;11.620;2023-04-07T09:33:48;95024.19;;;23.20;28.24
22389;BME280;11362;48.102;11.620;2023-04-07T09:36:13;95030.09;;;23.22;28.21
22389;BME280;11362;48.102;11.620;2023-04-07T09:38:40;95026.94;;;23.20;28.19
22389;BME280;11362;48.102;11.620;2023-04-07T09:41:16;95029.31;;;23.21;28.23
22389;BME280;11362;48.102;11.620;2023-04-07T09:43:43;95018.22;;;23.21;28.25
22389;BME280;11362;48.102;11.620;2023-04-07T09:46:10;95015.03;;;23.23;28.15
22389;BME280;11362;48.102;11.620;2023-04-07T09:48:35;95015.03;;;23.23;28.24
22389;BME280;11362;48.102;11.620;2023-04-07T09:51:14;95008.72;;;23.22;28.11
22389;BME280;11362;48.102;11.620;2023-04-07T09:56:08;95008.72;;;23.22;28.17
22389;BME280;11362;48.102;11.620;2023-04-07T09:58:34;94992.88;;;23.23;28.15
22389;BME280;11362;48.102;11.620;2023-04-07T10:01:02;94996.88;;;23.22;28.29
22389;BME280;11362;48.102;11.620;2023-04-07T10:03:27;94988.91;;;23.24;28.23
22389;BME280;11362;48.102;11.620;2023-04-07T10:05:53;94999.19;;;23.23;28.29
22389;BME280;11362;48.102;11.620;2023-04-07T10:08:18;95000.00;;;23.24;28.17
22389;BME280;11362;48.102;11.620;2023-04-07T10:10:44;94996.00;;;23.25;28.08
22389;BME280;11362;48.102;11.620;2023-04-07T10:13:10;94998.00;;;23.24;28.09
22389;BME280;11362;48.102;11.620;2023-04-07T10:15:36;94994.44;;;23.24;28.20
22389;BME280;11362;48.102;11.620;2023-04-07T10:18:03;94998.00;;;23.24;28.28
22389;BME280;11362;48.102;11.620;2023-04-07T10:20:30;94986.53;;;23.22;28.18
22389;BME280;11362;48.102;11.620;2023-04-07T10:23:02;94994.44;;;23.24;28.08
22389;BME280;11362;48.102;11.620;2023-04-07T10:25:29;94984.91;;;23.25;28.21
22389;BME280;11362;48.102;11.620;2023-04-07T10:28:04;94984.91;;;23.25;28.37
22389;BME280;11362;48.102;11.620;2023-04-07T10:30:31;94984.91;;;23.25;28.32
22389;BME280;11362;48.102;11.620;2023-04-07T10:32:57;94980.59;;;23.24;28.29
22389;BME280;11362;48.102;11.620;2023-04-07T10:35:23;94977.81;;;23.24;28.23
22389;BME280;11362;48.102;11.620;2023-04-07T10:40:33;94982.16;;;23.25;28.29
22389;BME280;11362;48.102;11.620;2023-04-07T10:42:59;94973.84;;;23.25;28.34
22389;BME280;11362;48.102;11.620;2023-04-07T10:48:12;94972.28;;;23.24;28.26
22389;BME280;11362;48.102;11.620;2023-04-07T10:50:38;94987.34;;;23.23;28.35
22389;BME280;11362;48.102;11.620;2023-04-07T10:53:08;94982.56;;;23.23;28.30
22389;BME280;11362;48.102;11.620;2023-04-07T10:58:12;94977.81;;;23.24;28.29
22389;BME280;11362;48.102;11.620;2023-04-07T11:00:37;94970.72;;;23.23;28.31
22389;BME280;11362;48.102;11.620;2023-04-07T11:03:10;94981.78;;;23.23;28.34
22389;BME280;11362;48.102;11.620;2023-04-07T11:05:35;94976.25;;;23.23;28.36
22389;BME280;11362;48.102;11.620;2023-04-07T11:08:00;94966.72;;;23.24;28.33
22389;BME280;11362;48.102;11.620;2023-04-07T11:10:25;94974.69;;;23.22;28.43
22389;BME280;11362;48.102;11.620;2023-04-07T11:13:02;94967.94;;;23.23;28.55
22389;BME280;11362;48.102;11.620;2023-04-07T11:15:27;94965.16;;;23.23;28.40
22389;BME280;11362;48.102;11.620;2023-04-07T11:18:07;94973.47;;;23.23;28.03
22389;BME280;11362;48.102;11.620;2023-04-07T11:20:43;94966.72;;;23.24;28.51
22389;BME280;11362;48.102;11.620;2023-04-07T11:23:09;94965.16;;;23.23;28.50
22389;BME280;11362;48.102;11.620;2023-04-07T11:25:35;94965.94;;;23.23;28.32
22389;BME280;11362;48.102;11.620;2023-04-07T11:28:03;94965.94;;;23.23;28.26
22389;BME280;11362;48.102;11.620;2023-04-07T11:30:28;94969.50;;;23.24;28.35
22389;BME280;11362;48.102;11.620;2023-04-07T11:32:55;94967.53;;;23.24;28.41
22389;BME280;11362;48.102;11.620;2023-04-07T11:35:22;94968.72;;;23.23;28.34
22389;BME280;11362;48.102;11.620;2023-04-07T11:37:47;94963.97;;;23.24;28.46
22389;BME280;11362;48.102;11.620;2023-04-07T11:40:12;94981.38;;;23.24;28.51
22389;BME280;11362;48.102;11.620;2023-04-07T11:42:55;94957.22;;;23.25;28.39
22389;BME280;11362;48.102;11.620;2023-04-07T11:45:20;94962.75;;;23.25;28.34
22389;BME280;11362;48.102;11.620;2023-04-07T11:47:45;94957.22;;;23.25;28.38
22389;BME280;11362;48.102;11.620;2023-04-07T11:50:10;94965.53;;;23.25;28.23
22389;BME280;11362;48.102;11.620;2023-04-07T11:52:46;94957.22;;;23.25;28.32
22389;BME280;11362;48.102;11.620;2023-04-07T11:55:22;94953.28;;;23.22;28.26
22389;BME280;11362;48.102;11.620;2023-04-07T11:57:47;94954.44;;;23.25;28.32
22389;BME280;11362;48.102;11.620;2023-04-07T12:00:13;94950.09;;;23.24;28.06
22389;BME280;11362;48.102;11.620;2023-04-07T12:02:39;94948.91;;;23.25;28.19
22389;BME280;11362;48.102;11.620;2023-04-07T12:05:05;94946.13;;;23.25;28.53
22389;BME280;11362;48.102;11.620;2023-04-07T12:07:30;94944.56;;;23.24;28.21
22389;BME280;11362;48.102;11.620;2023-04-07T12:09:56;94944.91;;;23.26;28.30
22389;BME280;11362;48.102;11.620;2023-04-07T12:12:28;94950.47;;;23.26;28.43
22389;BME280;11362;48.102;11.620;2023-04-07T12:14:54;94944.56;;;23.24;28.31
22389;BME280;11362;48.102;11.620;2023-04-07T12:17:24;94950.47;;;23.26;28.24
22389;BME280;11362;48.102;11.620;2023-04-07T12:19:50;94947.69;;;23.26;28.28
22389;BME280;11362;48.102;11.620;2023-04-07T12:22:15;94942.94;;;23.26;28.24
22389;BME280;11362;48.102;11.620;2023-04-07T12:24:40;94950.03;;;23.27;28.39
22389;BME280;11362;48.102;11.620;2023-04-07T12:27:06;94950.03;;;23.27;28.42
22389;BME280;11362;48.102;11.620;2023-04-07T12:29:32;94947.69;;;23.26;28.24
22389;BME280;11362;48.102;11.620;2023-04-07T12:31:58;94944.91;;;23.26;28.32
22389;BME280;11362;48.102;11.620;2023-04-07T12:34:23;94948.91;;;23.25;28.35
22389;BME280;11362;48.102;11.620;2023-04-07T12:36:48;94948.91;;;23.25;28.35
22389;BME280;11362;48.102;11.620;2023-04-07T12:39:14;94946.13;;;23.25;28.42
22389;BME280;11362;48.102;11.620;2023-04-07T12:41:40;94943.34;;;23.25;28.59
22389;BME280;11362;48.102;11.620;2023-04-07T12:44:05;94954.84;;;23.23;28.32
22389;BME280;11362;48.102;11.620;2023-04-07T12:46:30;94947.34;;;23.24;28.32
22389;BME280;11362;48.102;11.620;2023-04-07T12:48:56;94942.22;;;23.22;28.38
22389;BME280;11362;48.102;11.620;2023-04-07T12:51:21;94941.00;;;23.23;28.34
22389;BME280;11362;48.102;11.620;2023-04-07T12:53:47;94950.09;;;23.24;28.36
22389;BME280;11362;48.102;11.620;2023-04-07T12:56:12;94944.56;;;23.24;28.38
22389;BME280;11362;48.102;11.620;2023-04-07T12:58:38;94947.75;;;23.22;28.40
22389;BME280;11362;48.102;11.620;2023-04-07T13:01:03;94948.53;;;23.23;28.42
22389;BME280;11362;48.102;11.620;2023-04-07T13:03:29;94950.53;;;23.22;28.40